createdAt,value
2018-08-28T00:01:05.894Z,17.20
2018-08-28T00:03:33.975Z,17.20
2018-08-28T00:06:02.100Z,17.20
2018-08-28T00:08:30.333Z,17.20
2018-08-28T00:11:05.515Z,17.20
2018-08-28T00:13:33.587Z,17.20
2018-08-28T00:16:01.661Z,17.10
2018-08-28T00:18:29.727Z,17.10
2018-08-28T00:20:57.809Z,17.00
2018-08-28T00:23:25.855Z,17.00
2018-08-28T00:25:54.008Z,17.00
2018-08-28T00:28:22.113Z,17.00
2018-08-28T00:30:50.213Z,17.00
2018-08-28T00:33:18.323Z,17.00
2018-08-28T00:35:46.411Z,16.90
2018-08-28T00:38:14.490Z,17.00
2018-08-28T00:40:42.544Z,16.90
2018-08-28T00:43:10.607Z,16.90
2018-08-28T00:45:38.635Z,16.90
2018-08-28T00:48:06.739Z,17.00
2018-08-28T00:50:34.811Z,16.90
2018-08-28T00:53:03.018Z,16.90
2018-08-28T00:55:31.080Z,16.90
2018-08-28T00:57:59.177Z,16.90
2018-08-28T01:00:27.257Z,16.90
2018-08-28T01:02:55.344Z,16.90
2018-08-28T01:05:24.290Z,16.90
2018-08-28T01:07:53.204Z,16.90
2018-08-28T01:10:21.323Z,17.00
2018-08-28T01:12:49.556Z,16.90
2018-08-28T01:15:17.710Z,16.90
2018-08-28T01:17:45.802Z,16.90
2018-08-28T01:20:13.866Z,16.90
2018-08-28T01:22:41.941Z,16.90
2018-08-28T01:25:10.019Z,16.90
2018-08-28T01:27:38.235Z,16.90
2018-08-28T01:30:06.325Z,16.90
2018-08-28T01:32:34.434Z,17.00
2018-08-28T01:35:02.555Z,16.90
2018-08-28T01:37:30.645Z,16.90
2018-08-28T01:39:58.697Z,16.90
2018-08-28T01:42:26.798Z,16.90
2018-08-28T01:44:54.876Z,16.90
2018-08-28T01:47:23.099Z,16.80
2018-08-28T01:49:51.670Z,16.80
2018-08-28T01:52:20.205Z,16.80
2018-08-28T01:54:48.372Z,16.80
2018-08-28T01:57:16.443Z,16.90
2018-08-28T01:59:44.542Z,16.90
2018-08-28T02:02:12.630Z,16.90
2018-08-28T02:04:40.815Z,16.80
2018-08-28T02:07:08.935Z,16.80
2018-08-28T02:09:36.979Z,16.70
2018-08-28T02:12:05.087Z,16.70
2018-08-28T02:14:33.167Z,16.70
2018-08-28T02:17:01.248Z,16.60
2018-08-28T02:19:29.377Z,16.60
2018-08-28T02:21:57.510Z,16.60
2018-08-28T02:24:25.606Z,16.50
2018-08-28T02:26:53.688Z,16.60
2018-08-28T02:29:21.760Z,16.60
2018-08-28T02:31:49.846Z,16.60
2018-08-28T02:34:17.960Z,16.60
2018-08-28T02:36:46.032Z,16.60
2018-08-28T02:39:14.178Z,16.60
2018-08-28T02:41:42.270Z,16.60
2018-08-28T02:44:10.381Z,16.60
2018-08-28T02:46:38.998Z,16.50
2018-08-28T02:49:07.405Z,16.40
2018-08-28T02:51:36.161Z,16.30
2018-08-28T02:54:04.264Z,16.40
2018-08-28T02:56:32.335Z,16.40
2018-08-28T02:59:00.426Z,16.40
2018-08-28T03:01:28.564Z,16.30
2018-08-28T03:03:56.682Z,16.30
2018-08-28T03:06:24.906Z,16.30
2018-08-28T03:08:53.026Z,16.30
2018-08-28T03:11:21.069Z,16.30
2018-08-28T03:13:49.173Z,16.30
2018-08-28T03:16:17.230Z,16.30
2018-08-28T03:18:45.519Z,16.30
2018-08-28T03:21:13.590Z,16.30
2018-08-28T03:23:41.716Z,16.30
2018-08-28T03:26:10.120Z,16.30
2018-08-28T03:28:38.315Z,16.40
2018-08-28T03:31:06.425Z,16.40
2018-08-28T03:33:34.575Z,16.50
2018-08-28T03:36:02.654Z,16.50
2018-08-28T03:38:30.880Z,16.50
2018-08-28T03:40:58.983Z,16.40
2018-08-28T03:43:27.086Z,16.40
2018-08-28T03:45:55.213Z,16.30
2018-08-28T03:48:23.332Z,16.30
2018-08-28T03:50:51.408Z,16.30
2018-08-28T03:53:19.660Z,16.40
2018-08-28T03:55:47.732Z,16.40
2018-08-28T03:58:15.822Z,16.40
2018-08-28T04:00:43.978Z,16.40
2018-08-28T04:03:12.121Z,16.40
2018-08-28T04:05:40.356Z,16.40
2018-08-28T04:08:08.499Z,16.30
2018-08-28T04:10:36.539Z,16.40
2018-08-28T04:13:04.616Z,16.40
2018-08-28T04:15:32.831Z,16.40
2018-08-28T04:18:01.027Z,16.40
2018-08-28T04:20:29.238Z,16.30
2018-08-28T04:22:57.397Z,16.40
2018-08-28T04:25:25.503Z,16.30
2018-08-28T04:27:53.579Z,16.30
2018-08-28T04:30:21.765Z,16.30
2018-08-28T04:32:50.088Z,16.20
2018-08-28T04:35:18.202Z,16.20
2018-08-28T04:37:46.286Z,16.30
2018-08-28T04:40:14.392Z,16.30
2018-08-28T04:42:42.490Z,16.30
2018-08-28T04:45:10.595Z,16.30
2018-08-28T04:47:38.672Z,16.30
2018-08-28T04:50:06.849Z,16.30
2018-08-28T04:52:35.284Z,16.30
2018-08-28T04:55:03.509Z,16.30
2018-08-28T04:57:31.612Z,16.30
2018-08-28T04:59:59.707Z,16.30
2018-08-28T05:02:32.041Z,16.30
2018-08-28T05:05:00.145Z,16.30
2018-08-28T05:07:28.314Z,16.30
2018-08-28T05:09:56.398Z,16.40
2018-08-28T05:12:24.466Z,16.30
2018-08-28T05:14:52.549Z,16.30
2018-08-28T05:17:20.596Z,16.30
2018-08-28T05:19:48.666Z,16.30
2018-08-28T05:22:16.761Z,16.40
2018-08-28T05:24:44.907Z,16.40
2018-08-28T05:27:12.994Z,16.50
2018-08-28T05:29:41.212Z,16.50
2018-08-28T05:32:09.242Z,16.60
2018-08-28T05:34:37.453Z,16.60
2018-08-28T05:37:05.489Z,16.50
2018-08-28T05:39:33.664Z,16.60
2018-08-28T05:42:01.733Z,16.50
2018-08-28T05:44:29.823Z,16.50
2018-08-28T05:46:58.260Z,16.60
2018-08-28T05:49:26.433Z,16.70
2018-08-28T05:51:54.443Z,16.70
2018-08-28T05:54:22.545Z,16.70
2018-08-28T05:56:50.636Z,16.80
2018-08-28T05:59:18.743Z,16.80
2018-08-28T06:01:46.835Z,16.80
2018-08-28T06:04:14.962Z,16.80
2018-08-28T06:06:43.103Z,14.90
2018-08-28T06:09:11.231Z,16.80
2018-08-28T06:11:39.312Z,16.80
2018-08-28T06:14:07.377Z,15.80
2018-08-28T06:16:36.083Z,17.00
2018-08-28T06:19:04.214Z,17.10
2018-08-28T06:21:32.286Z,17.10
2018-08-28T06:24:00.357Z,17.10
2018-08-28T06:26:28.447Z,17.30
2018-08-28T06:28:56.525Z,17.30
2018-08-28T06:31:24.622Z,17.50
2018-08-28T06:33:52.715Z,17.60
2018-08-28T06:36:20.815Z,17.70
2018-08-28T06:38:48.927Z,17.70
2018-08-28T06:41:17.011Z,17.70
2018-08-28T06:43:45.096Z,17.60
2018-08-28T06:46:13.219Z,17.70
2018-08-28T06:48:41.303Z,17.70
2018-08-28T06:51:09.425Z,17.80
2018-08-28T06:53:37.519Z,17.90
2018-08-28T06:56:05.809Z,17.80
2018-08-28T06:58:33.879Z,17.70
2018-08-28T07:01:01.986Z,17.80
2018-08-28T07:03:30.101Z,17.90
2018-08-28T07:05:58.208Z,18.20
2018-08-28T07:08:26.288Z,18.70
2018-08-28T07:10:54.365Z,19.10
2018-08-28T07:13:22.469Z,19.10
2018-08-28T07:15:50.569Z,19.20
2018-08-28T07:18:18.663Z,19.20
2018-08-28T07:20:46.742Z,19.30
2018-08-28T07:23:14.833Z,19.50
2018-08-28T07:25:43.002Z,19.90
2018-08-28T07:28:11.008Z,20.10
2018-08-28T07:30:39.120Z,20.40
2018-08-28T07:33:07.360Z,20.20
2018-08-28T07:35:35.418Z,19.90
2018-08-28T07:38:03.484Z,20.00
2018-08-28T07:43:06.135Z,19.50
2018-08-28T07:45:34.225Z,19.40
2018-08-28T07:48:02.282Z,19.40
2018-08-28T07:50:30.365Z,19.40
2018-08-28T07:52:58.450Z,19.40
2018-08-28T07:55:26.543Z,19.40
2018-08-28T07:57:54.615Z,19.30
2018-08-28T08:00:22.706Z,19.20
2018-08-28T08:02:50.789Z,19.20
2018-08-28T08:05:18.874Z,19.20
2018-08-28T08:07:46.964Z,19.30
2018-08-28T08:10:15.029Z,19.50
2018-08-28T08:12:43.163Z,19.30
2018-08-28T08:15:11.225Z,19.30
2018-08-28T08:17:39.631Z,19.60
2018-08-28T08:20:07.722Z,19.70
2018-08-28T08:22:35.779Z,19.80
2018-08-28T08:25:03.867Z,19.90
2018-08-28T08:27:31.945Z,19.90
2018-08-28T08:30:00.186Z,20.00
2018-08-28T08:32:28.253Z,19.90
2018-08-28T08:34:56.343Z,20.00
2018-08-28T08:37:24.441Z,20.10
2018-08-28T08:39:52.510Z,20.00
2018-08-28T08:42:20.582Z,20.00
2018-08-28T08:44:48.637Z,20.10
2018-08-28T08:47:16.723Z,20.20
2018-08-28T08:49:44.834Z,20.30
2018-08-28T08:52:12.913Z,20.40
2018-08-28T08:54:41.177Z,20.60
2018-08-28T08:57:09.381Z,20.80
2018-08-28T08:59:37.379Z,20.90
2018-08-28T09:02:05.465Z,20.80
2018-08-28T09:04:33.747Z,20.50
2018-08-28T09:07:01.872Z,20.30
2018-08-28T09:09:30.174Z,20.40
2018-08-28T09:11:58.267Z,20.30
2018-08-28T09:14:26.376Z,20.30
2018-08-28T09:16:54.464Z,20.40
2018-08-28T09:19:22.702Z,20.40
2018-08-28T09:21:50.661Z,20.50
2018-08-28T09:24:18.723Z,20.50
2018-08-28T09:26:46.782Z,20.50
2018-08-28T09:29:14.866Z,20.50
2018-08-28T09:31:43.036Z,20.60
2018-08-28T09:34:10.970Z,20.60
2018-08-28T09:36:39.044Z,20.70
2018-08-28T09:39:07.580Z,20.90
2018-08-28T09:41:35.833Z,20.90
2018-08-28T09:44:03.908Z,21.00
2018-08-28T09:46:31.984Z,21.20
2018-08-28T09:49:00.051Z,21.40
2018-08-28T09:51:28.117Z,21.40
2018-08-28T09:53:56.209Z,21.40
2018-08-28T09:56:24.269Z,21.10
2018-08-28T09:58:52.410Z,21.10
2018-08-28T10:01:25.839Z,21.00
2018-08-28T10:03:53.929Z,21.10
2018-08-28T10:06:21.954Z,21.00
2018-08-28T10:08:50.033Z,21.10
2018-08-28T10:11:18.109Z,21.00
2018-08-28T10:13:46.182Z,21.00
2018-08-28T10:16:14.250Z,21.00
2018-08-28T10:18:42.369Z,21.00
2018-08-28T10:21:10.399Z,21.10
2018-08-28T10:23:38.490Z,21.20
2018-08-28T10:26:06.549Z,21.30
2018-08-28T10:28:34.620Z,21.10
2018-08-28T10:31:02.951Z,21.00
2018-08-28T10:33:31.044Z,21.10
2018-08-28T10:35:59.140Z,21.10
2018-08-28T10:38:27.237Z,21.10
2018-08-28T10:40:55.338Z,21.20
2018-08-28T10:43:23.460Z,21.40
2018-08-28T10:45:51.684Z,21.40
2018-08-28T10:48:19.794Z,21.50
2018-08-28T10:50:47.876Z,21.50
2018-08-28T10:53:16.037Z,21.50
2018-08-28T10:55:44.930Z,21.60
2018-08-28T10:58:13.567Z,21.60
2018-08-28T11:00:42.141Z,21.60
2018-08-28T11:03:10.223Z,21.60
2018-08-28T11:05:38.278Z,21.70
2018-08-28T11:08:06.726Z,21.90
2018-08-28T11:10:34.806Z,22.00
2018-08-28T11:13:02.867Z,22.10
2018-08-28T11:15:30.976Z,22.30
2018-08-28T11:17:59.069Z,22.40
2018-08-28T11:20:27.135Z,22.50
2018-08-28T11:22:55.308Z,22.50
2018-08-28T11:25:23.320Z,22.60
2018-08-28T11:27:51.369Z,22.60
2018-08-28T11:30:19.484Z,22.50
2018-08-28T11:32:47.538Z,22.40
2018-08-28T11:35:15.612Z,22.20
2018-08-28T11:37:43.683Z,22.00
2018-08-28T11:40:11.980Z,21.90
2018-08-28T11:42:40.084Z,21.90
2018-08-28T11:45:08.514Z,21.90
2018-08-28T11:47:36.630Z,22.00
2018-08-28T11:50:04.748Z,22.10
2018-08-28T11:52:32.863Z,22.00
2018-08-28T11:55:00.927Z,21.90
2018-08-28T11:57:28.975Z,21.90
2018-08-28T11:59:57.050Z,21.80
2018-08-28T12:02:25.114Z,21.80
2018-08-28T12:04:53.281Z,21.80
2018-08-28T12:07:21.454Z,22.00
2018-08-28T12:09:49.422Z,22.10
2018-08-28T12:12:17.590Z,22.30
2018-08-28T12:14:45.644Z,22.30
2018-08-28T12:17:13.704Z,22.30
2018-08-28T12:19:41.816Z,22.10
2018-08-28T12:22:09.886Z,22.20
2018-08-28T12:24:38.050Z,22.40
2018-08-28T12:27:06.266Z,22.30
2018-08-28T12:29:34.398Z,22.30
2018-08-28T12:32:02.422Z,22.50
2018-08-28T12:34:30.479Z,22.60
2018-08-28T12:36:58.559Z,22.80
2018-08-28T12:39:26.653Z,22.80
2018-08-28T12:41:54.739Z,23.00
2018-08-28T12:44:22.819Z,22.90
2018-08-28T12:46:50.941Z,23.00
2018-08-28T12:49:19.038Z,22.80
2018-08-28T12:51:47.101Z,23.00
2018-08-28T12:54:15.204Z,23.10
2018-08-28T12:56:43.313Z,22.80
2018-08-28T12:59:11.510Z,22.80
2018-08-28T13:01:39.544Z,22.70
2018-08-28T13:04:07.611Z,22.60
2018-08-28T13:06:35.682Z,22.40
2018-08-28T13:09:04.063Z,22.30
2018-08-28T13:11:32.123Z,22.50
2018-08-28T13:14:00.184Z,22.60
2018-08-28T13:16:28.250Z,22.50
2018-08-28T13:18:56.542Z,22.60
2018-08-28T13:21:24.769Z,22.70
2018-08-28T13:23:52.942Z,22.90
2018-08-28T13:26:21.068Z,23.00
2018-08-28T13:28:49.286Z,22.90
2018-08-28T13:31:17.336Z,23.10
2018-08-28T13:33:45.421Z,23.10
2018-08-28T13:36:13.539Z,23.20
2018-08-28T13:38:41.596Z,23.20
2018-08-28T13:41:09.764Z,23.20
2018-08-28T13:43:38.002Z,23.20
2018-08-28T13:46:06.134Z,22.90
2018-08-28T13:48:34.260Z,22.90
2018-08-28T13:51:02.389Z,23.00
2018-08-28T13:53:30.535Z,23.00
2018-08-28T13:55:58.512Z,23.00
2018-08-28T13:58:26.612Z,23.10
2018-08-28T14:00:54.732Z,23.00
2018-08-28T14:03:22.839Z,23.10
2018-08-28T14:05:50.958Z,23.00
2018-08-28T14:08:19.040Z,22.90
2018-08-28T14:10:47.132Z,22.90
2018-08-28T14:13:15.497Z,22.90
2018-08-28T14:15:43.677Z,22.70
2018-08-28T14:18:11.832Z,22.70
2018-08-28T14:20:39.895Z,22.70
2018-08-28T14:23:07.956Z,22.80
2018-08-28T14:25:36.065Z,22.80
2018-08-28T14:28:04.358Z,22.90
2018-08-28T14:30:32.447Z,23.00
2018-08-28T14:33:00.564Z,23.10
2018-08-28T14:35:28.841Z,23.10
2018-08-28T14:37:56.763Z,23.10
2018-08-28T14:40:24.853Z,23.30
2018-08-28T14:42:52.953Z,23.40
2018-08-28T14:45:21.062Z,23.50
2018-08-28T14:47:49.172Z,23.60
2018-08-28T14:50:17.332Z,23.30
2018-08-28T14:52:45.306Z,23.10
2018-08-28T14:55:13.668Z,23.00
2018-08-28T14:57:41.688Z,22.80
2018-08-28T15:00:09.786Z,22.90
2018-08-28T15:02:37.860Z,22.90
2018-08-28T15:05:05.962Z,23.00
2018-08-28T15:07:34.063Z,23.00
2018-08-28T15:10:02.199Z,22.90
2018-08-28T15:12:30.313Z,21.70
2018-08-28T15:14:58.454Z,22.80
2018-08-28T15:17:26.570Z,22.80
2018-08-28T15:19:54.643Z,22.70
2018-08-28T15:22:22.715Z,22.70
2018-08-28T15:24:50.780Z,22.60
2018-08-28T15:27:19.822Z,22.60
2018-08-28T15:29:47.817Z,22.50
2018-08-28T15:32:15.926Z,22.60
2018-08-28T15:34:43.971Z,22.50
2018-08-28T15:37:12.083Z,22.50
2018-08-28T15:39:40.134Z,22.50
2018-08-28T15:42:08.207Z,22.50
2018-08-28T15:44:36.304Z,22.50
2018-08-28T15:47:04.422Z,22.50
2018-08-28T15:49:32.520Z,22.50
2018-08-28T15:52:00.639Z,22.30
2018-08-28T15:54:28.689Z,22.30
2018-08-28T15:56:56.774Z,22.30
2018-08-28T15:59:24.886Z,22.40
2018-08-28T16:01:52.991Z,22.40
2018-08-28T16:04:21.616Z,22.50
2018-08-28T16:06:51.437Z,22.50
2018-08-28T16:09:19.541Z,22.60
2018-08-28T16:11:47.982Z,22.50
2018-08-28T16:14:16.155Z,22.50
2018-08-28T16:16:45.262Z,22.40
2018-08-28T16:19:13.372Z,22.40
2018-08-28T16:21:47.763Z,22.30
2018-08-28T16:24:15.843Z,22.30
2018-08-28T16:26:43.954Z,22.20
2018-08-28T16:29:12.174Z,22.20
2018-08-28T16:31:40.274Z,22.10
2018-08-28T16:34:09.658Z,22.00
2018-08-28T16:36:38.040Z,22.00
2018-08-28T16:39:07.479Z,21.90
2018-08-28T16:41:35.936Z,21.90
2018-08-28T16:44:04.041Z,21.80
2018-08-28T16:46:32.151Z,21.70
2018-08-28T16:49:00.367Z,21.60
2018-08-28T16:51:28.957Z,21.60
2018-08-28T16:53:57.037Z,21.50
2018-08-28T16:56:25.164Z,21.50
2018-08-28T16:58:53.237Z,21.50
2018-08-28T17:01:21.609Z,21.40
2018-08-28T17:03:49.623Z,21.40
2018-08-28T17:06:17.864Z,21.30
2018-08-28T17:08:45.954Z,21.30
2018-08-28T17:11:14.261Z,21.30
2018-08-28T17:13:42.385Z,21.20
2018-08-28T17:16:10.633Z,21.20
2018-08-28T17:18:38.724Z,21.20
2018-08-28T17:21:06.994Z,21.20
2018-08-28T17:26:09.529Z,21.10
2018-08-28T17:28:37.769Z,21.10
2018-08-28T17:31:06.024Z,21.10
2018-08-28T17:33:34.088Z,21.00
2018-08-28T17:36:02.179Z,21.00
2018-08-28T17:38:30.194Z,20.90
2018-08-28T17:40:58.302Z,20.90
2018-08-28T17:43:26.420Z,20.70
2018-08-28T17:45:55.617Z,20.60
2018-08-28T17:48:23.800Z,20.50
2018-08-28T17:50:51.987Z,20.40
2018-08-28T17:53:20.103Z,20.30
2018-08-28T17:55:48.157Z,20.20
2018-08-28T17:58:16.246Z,20.10
2018-08-28T18:00:44.370Z,20.00
2018-08-28T18:03:12.564Z,19.80
2018-08-28T18:05:40.731Z,19.70
2018-08-28T18:08:09.030Z,19.60
2018-08-28T18:10:37.175Z,19.50
2018-08-28T18:13:05.330Z,19.40
2018-08-28T18:15:33.436Z,19.30
2018-08-28T18:18:01.550Z,19.30
2018-08-28T18:20:29.630Z,19.30
2018-08-28T18:22:57.743Z,19.20
2018-08-28T18:25:25.913Z,19.10
2018-08-28T18:27:54.043Z,19.00
2018-08-28T18:30:22.370Z,18.90
2018-08-28T18:32:50.696Z,18.80
2018-08-28T18:35:18.792Z,18.80
2018-08-28T18:37:46.915Z,18.70
2018-08-28T18:40:14.958Z,18.70
2018-08-28T18:42:43.085Z,18.60
2018-08-28T18:45:11.173Z,18.50
2018-08-28T18:47:39.294Z,18.50
2018-08-28T18:50:07.370Z,18.40
2018-08-28T18:52:35.464Z,18.40
2018-08-28T18:55:03.570Z,18.30
2018-08-28T18:57:31.647Z,18.30
2018-08-28T18:59:59.686Z,18.20
2018-08-28T19:02:27.804Z,18.20
2018-08-28T19:04:55.927Z,18.20
2018-08-28T19:07:24.077Z,18.20
2018-08-28T19:09:52.134Z,18.20
2018-08-28T19:12:20.246Z,18.20
2018-08-28T19:14:48.351Z,18.10
2018-08-28T19:17:16.418Z,18.10
2018-08-28T19:19:44.760Z,18.10
2018-08-28T19:22:13.050Z,18.10
2018-08-28T19:24:41.341Z,17.90
2018-08-28T19:27:10.224Z,17.90
2018-08-28T19:29:38.279Z,17.80
2018-08-28T19:32:06.364Z,17.80
2018-08-28T19:34:34.468Z,17.70
2018-08-28T19:37:02.554Z,17.70
2018-08-28T19:39:30.652Z,17.60
2018-08-28T19:41:58.697Z,17.60
2018-08-28T19:44:26.812Z,17.60
2018-08-28T19:46:54.983Z,17.50
2018-08-28T19:49:23.404Z,17.50
2018-08-28T19:51:51.816Z,17.50
2018-08-28T19:54:20.894Z,17.50
2018-08-28T19:56:48.982Z,17.40
2018-08-28T19:59:17.372Z,17.30
2018-08-28T20:01:45.568Z,17.20
2018-08-28T20:04:13.640Z,17.20
2018-08-28T20:06:41.703Z,17.10
2018-08-28T20:09:09.823Z,17.10
2018-08-28T20:11:37.892Z,17.10
2018-08-28T20:14:05.961Z,17.10
2018-08-28T20:16:34.038Z,17.10
2018-08-28T20:19:02.271Z,17.00
2018-08-28T20:21:30.620Z,17.00
2018-08-28T20:23:58.723Z,17.00
2018-08-28T20:26:26.801Z,17.00
2018-08-28T20:28:54.902Z,17.00
2018-08-28T20:31:22.980Z,16.90
2018-08-28T20:33:51.053Z,16.80
2018-08-28T20:36:19.134Z,16.80
2018-08-28T20:38:47.236Z,16.70
2018-08-28T20:41:15.346Z,16.70
2018-08-28T20:43:43.495Z,16.70
2018-08-28T20:46:11.727Z,16.70
2018-08-28T20:48:39.840Z,16.70
2018-08-28T20:51:07.978Z,16.70
2018-08-28T20:53:36.148Z,16.70
2018-08-28T20:56:04.195Z,16.70
2018-08-28T20:58:32.266Z,16.70
2018-08-28T21:01:00.341Z,16.60
2018-08-28T21:03:28.525Z,16.60
2018-08-28T21:05:56.594Z,16.60
2018-08-28T21:08:24.664Z,16.60
2018-08-28T21:10:52.740Z,16.60
2018-08-28T21:13:20.828Z,16.60
2018-08-28T21:15:48.921Z,16.60
2018-08-28T21:18:18.278Z,16.50
2018-08-28T21:20:46.619Z,16.50
2018-08-28T21:23:14.689Z,16.40
2018-08-28T21:25:44.801Z,16.40
2018-08-28T21:28:12.888Z,16.40
2018-08-28T21:30:41.023Z,16.30
2018-08-28T21:33:09.076Z,16.20
2018-08-28T21:35:37.626Z,16.20
2018-08-28T21:38:07.742Z,16.10
2018-08-28T21:40:35.849Z,16.10
2018-08-28T21:43:05.950Z,16.10
2018-08-28T21:45:36.538Z,16.00
2018-08-28T21:48:05.853Z,16.00
2018-08-28T21:50:35.041Z,16.00
2018-08-28T21:53:09.480Z,16.00
2018-08-28T21:55:37.569Z,16.00
2018-08-28T21:58:06.244Z,15.90
2018-08-28T22:00:34.506Z,15.90
2018-08-28T22:03:02.659Z,15.90
2018-08-28T22:05:31.914Z,15.80
2018-08-28T22:08:03.222Z,15.90
2018-08-28T22:10:31.859Z,15.90
2018-08-28T22:13:00.055Z,16.00
2018-08-28T22:15:28.145Z,16.00
2018-08-28T22:17:56.388Z,16.00
2018-08-28T22:20:24.490Z,15.90
2018-08-28T22:22:53.156Z,15.90
2018-08-28T22:25:21.419Z,15.80
2018-08-28T22:27:49.522Z,15.80
2018-08-28T22:30:17.618Z,15.80
2018-08-28T22:32:45.719Z,15.80
2018-08-28T22:35:13.821Z,15.80
2018-08-28T22:37:41.962Z,15.80
2018-08-28T22:40:11.465Z,15.80
2018-08-28T22:42:39.743Z,15.80
2018-08-28T22:45:07.823Z,15.80
2018-08-28T22:47:35.959Z,15.80
2018-08-28T22:50:04.041Z,15.70
2018-08-28T22:52:32.325Z,15.70
2018-08-28T22:55:00.395Z,15.60
2018-08-28T22:57:28.476Z,15.50
2018-08-28T22:59:56.636Z,15.50
2018-08-28T23:02:24.770Z,15.50
2018-08-28T23:04:53.302Z,15.50
2018-08-28T23:07:21.461Z,15.50
2018-08-28T23:09:49.538Z,15.50
2018-08-28T23:12:17.630Z,15.40
2018-08-28T23:14:45.678Z,15.30
2018-08-28T23:17:13.775Z,15.20
2018-08-28T23:19:41.827Z,15.20
2018-08-28T23:22:09.929Z,15.10
2018-08-28T23:24:38.152Z,15.10
2018-08-28T23:27:06.264Z,15.00
2018-08-28T23:29:34.349Z,14.90
2018-08-28T23:32:02.447Z,14.90
2018-08-28T23:34:30.527Z,14.90
2018-08-28T23:36:58.597Z,14.90
2018-08-28T23:39:26.695Z,14.80
2018-08-28T23:41:54.814Z,14.90
2018-08-28T23:44:22.898Z,14.80
2018-08-28T23:46:51.010Z,14.70
2018-08-28T23:49:19.134Z,14.80
2018-08-28T23:51:47.258Z,14.80
2018-08-28T23:54:15.391Z,14.90
2018-08-28T23:56:43.446Z,14.90
2018-08-28T23:59:11.500Z,14.90
